createdAt,value
2017-10-04T00:00:37.938Z,83.20
2017-10-04T00:03:06.433Z,83.00
2017-10-04T00:05:35.270Z,83.20
2017-10-04T00:08:04.109Z,83.10
2017-10-04T00:10:32.945Z,83.20
2017-10-04T00:13:02.562Z,83.30
2017-10-04T00:15:31.397Z,83.30
2017-10-04T00:18:00.227Z,83.20
2017-10-04T00:20:29.054Z,83.30
2017-10-04T00:22:57.889Z,83.30
2017-10-04T00:25:27.507Z,83.60
2017-10-04T00:27:56.382Z,83.60
2017-10-04T00:30:25.339Z,83.50
2017-10-04T00:32:54.937Z,83.50
2017-10-04T00:35:24.530Z,83.50
2017-10-04T00:37:53.355Z,83.50
2017-10-04T00:40:22.347Z,83.50
2017-10-04T00:42:51.169Z,83.50
2017-10-04T00:45:20.777Z,83.40
2017-10-04T00:47:49.623Z,83.40
2017-10-04T00:50:19.218Z,83.40
2017-10-04T00:52:48.814Z,83.50
2017-10-04T00:55:16.974Z,83.40
2017-10-04T00:57:46.224Z,83.70
2017-10-04T01:00:15.062Z,83.50
2017-10-04T01:02:43.902Z,83.60
2017-10-04T01:05:12.734Z,83.50
2017-10-04T01:07:41.601Z,83.40
2017-10-04T01:10:10.430Z,83.30
2017-10-04T01:12:39.271Z,83.10
2017-10-04T01:15:08.102Z,83.20
2017-10-04T01:17:37.698Z,83.00
2017-10-04T01:20:06.182Z,83.00
2017-10-04T01:22:34.334Z,82.80
2017-10-04T01:25:03.186Z,82.60
2017-10-04T01:27:32.009Z,82.30
2017-10-04T01:30:00.845Z,82.20
2017-10-04T01:32:29.689Z,82.10
2017-10-04T01:34:58.539Z,82.20
2017-10-04T01:37:27.378Z,82.00
2017-10-04T01:39:56.218Z,81.90
2017-10-04T01:42:25.053Z,82.00
2017-10-04T01:44:53.897Z,82.20
2017-10-04T01:47:22.731Z,82.10
2017-10-04T01:49:51.567Z,82.30
2017-10-04T01:52:20.499Z,82.40
2017-10-04T01:54:50.102Z,82.90
2017-10-04T01:57:19.705Z,82.20
2017-10-04T01:59:49.316Z,82.10
2017-10-04T02:02:18.916Z,81.90
2017-10-04T02:04:47.826Z,81.90
2017-10-04T02:07:17.430Z,81.90
2017-10-04T02:09:46.283Z,81.90
2017-10-04T02:12:15.106Z,82.00
2017-10-04T02:14:44.730Z,81.90
2017-10-04T02:17:14.355Z,81.80
2017-10-04T02:19:43.178Z,81.80
2017-10-04T02:22:12.817Z,81.70
2017-10-04T02:24:41.662Z,81.70
2017-10-04T02:27:10.489Z,81.60
2017-10-04T02:29:39.335Z,81.40
2017-10-04T02:32:08.176Z,81.30
2017-10-04T02:34:37.019Z,81.30
2017-10-04T02:37:05.858Z,81.20
2017-10-04T02:39:34.690Z,81.10
2017-10-04T02:42:03.531Z,80.90
2017-10-04T02:44:32.407Z,80.90
2017-10-04T02:47:01.272Z,81.00
2017-10-04T02:49:30.144Z,80.70
2017-10-04T02:51:58.978Z,80.70
2017-10-04T02:54:27.820Z,80.80
2017-10-04T02:56:56.645Z,80.70
2017-10-04T02:59:25.477Z,80.80
2017-10-04T03:01:54.802Z,80.70
2017-10-04T03:04:23.646Z,81.30
2017-10-04T03:06:53.134Z,80.70
2017-10-04T03:09:22.020Z,80.50
2017-10-04T03:11:50.859Z,80.40
2017-10-04T03:14:20.462Z,80.30
2017-10-04T03:16:49.299Z,80.30
2017-10-04T03:19:18.510Z,80.30
2017-10-04T03:21:47.358Z,80.20
2017-10-04T03:24:16.960Z,80.00
2017-10-04T03:26:47.222Z,80.10
2017-10-04T03:29:16.070Z,80.00
2017-10-04T03:31:45.684Z,80.10
2017-10-04T03:34:15.289Z,80.00
2017-10-04T03:36:44.893Z,80.20
2017-10-04T03:39:13.733Z,80.20
2017-10-04T03:41:42.607Z,80.20
2017-10-04T03:44:11.460Z,80.20
2017-10-04T03:46:41.064Z,80.10
2017-10-04T03:49:09.902Z,80.10
2017-10-04T03:51:38.745Z,80.10
2017-10-04T03:54:07.581Z,80.20
2017-10-04T03:56:36.410Z,80.40
2017-10-04T03:59:05.254Z,80.40
2017-10-04T04:01:34.099Z,80.40
2017-10-04T04:04:02.971Z,80.40
2017-10-04T04:06:31.824Z,80.50
2017-10-04T04:09:00.677Z,80.50
2017-10-04T04:11:29.516Z,80.60
2017-10-04T04:13:58.366Z,80.70
2017-10-04T04:16:27.201Z,80.70
2017-10-04T04:18:56.031Z,80.60
2017-10-04T04:21:24.870Z,80.70
2017-10-04T04:23:53.709Z,80.70
2017-10-04T04:26:22.538Z,80.70
2017-10-04T04:28:51.959Z,80.70
2017-10-04T04:31:20.786Z,80.70
2017-10-04T04:33:49.623Z,80.50
2017-10-04T04:36:19.221Z,80.80
2017-10-04T04:39:00.661Z,80.80
2017-10-04T04:41:29.678Z,80.80
2017-10-04T04:43:58.535Z,80.80
2017-10-04T04:46:27.386Z,80.70
2017-10-04T04:48:56.994Z,80.80
2017-10-04T04:51:26.600Z,80.80
2017-10-04T04:53:56.226Z,80.80
2017-10-04T04:56:25.259Z,80.80
2017-10-04T04:58:54.157Z,80.90
2017-10-04T05:01:22.997Z,80.80
2017-10-04T05:03:52.610Z,80.70
2017-10-04T05:06:21.458Z,80.70
2017-10-04T05:08:50.309Z,80.50
2017-10-04T05:11:19.130Z,80.60
2017-10-04T05:13:48.813Z,84.60
2017-10-04T05:16:17.649Z,85.30
2017-10-04T05:18:46.504Z,83.20
2017-10-04T05:21:15.496Z,80.10
2017-10-04T05:23:44.369Z,80.40
2017-10-04T05:26:14.090Z,80.00
2017-10-04T05:28:42.962Z,80.00
2017-10-04T05:31:11.794Z,78.90
2017-10-04T05:33:40.647Z,78.00
2017-10-04T05:36:09.517Z,78.80
2017-10-04T05:38:39.248Z,79.50
2017-10-04T05:41:08.104Z,79.50
2017-10-04T05:43:37.522Z,79.80
2017-10-04T05:48:53.186Z,79.80
2017-10-04T05:51:22.521Z,79.90
2017-10-04T05:53:52.125Z,80.10
2017-10-04T05:56:20.987Z,79.60
2017-10-04T05:58:50.061Z,79.30
2017-10-04T06:01:18.910Z,79.40
2017-10-04T06:03:48.522Z,79.40
2017-10-04T06:06:21.257Z,79.30
2017-10-04T06:08:50.088Z,79.30
2017-10-04T06:11:18.926Z,79.20
2017-10-04T06:13:47.773Z,79.10
2017-10-04T06:16:17.382Z,79.00
2017-10-04T06:18:47.009Z,78.90
2017-10-04T06:21:16.795Z,78.90
2017-10-04T06:23:45.693Z,78.50
2017-10-04T06:26:15.302Z,78.30
2017-10-04T06:28:44.914Z,78.20
2017-10-04T06:31:14.518Z,78.10
2017-10-04T06:33:44.130Z,77.90
2017-10-04T06:36:15.166Z,77.80
2017-10-04T06:38:45.158Z,77.60
2017-10-04T06:41:14.001Z,77.60
2017-10-04T06:43:42.856Z,77.30
2017-10-04T06:46:13.468Z,77.10
2017-10-04T06:48:43.073Z,76.70
2017-10-04T06:51:11.923Z,76.80
2017-10-04T06:53:41.309Z,76.60
2017-10-04T06:56:11.015Z,76.50
2017-10-04T06:58:39.925Z,76.40
2017-10-04T07:01:08.772Z,76.20
2017-10-04T07:03:37.621Z,75.90
2017-10-04T07:06:06.781Z,76.00
2017-10-04T07:08:35.657Z,75.90
2017-10-04T07:11:04.506Z,75.80
2017-10-04T07:13:33.353Z,75.40
2017-10-04T07:16:03.537Z,75.40
2017-10-04T07:18:32.393Z,75.40
2017-10-04T07:21:01.234Z,75.00
2017-10-04T07:23:30.082Z,74.90
2017-10-04T07:25:58.917Z,74.70
2017-10-04T07:28:27.758Z,74.60
2017-10-04T07:30:56.586Z,74.70
2017-10-04T07:33:26.247Z,74.80
2017-10-04T07:35:55.849Z,74.50
2017-10-04T07:38:25.453Z,74.40
2017-10-04T07:40:55.068Z,74.10
2017-10-04T07:43:24.670Z,73.80
2017-10-04T07:45:54.293Z,73.60
2017-10-04T07:48:23.350Z,73.60
2017-10-04T07:50:52.203Z,72.60
2017-10-04T07:53:20.875Z,72.10
2017-10-04T07:55:49.581Z,71.30
2017-10-04T07:58:19.001Z,70.10
2017-10-04T08:00:47.858Z,69.40
2017-10-04T08:03:16.743Z,68.80
2017-10-04T08:05:45.594Z,68.20
2017-10-04T08:08:14.508Z,67.40
2017-10-04T08:10:43.810Z,66.40
2017-10-04T08:13:13.419Z,65.40
2017-10-04T08:15:43.023Z,65.30
2017-10-04T08:18:12.637Z,65.10
2017-10-04T08:20:42.253Z,65.00
2017-10-04T08:23:11.863Z,64.50
2017-10-04T08:25:40.713Z,64.50
2017-10-04T08:28:09.587Z,64.50
2017-10-04T08:30:38.457Z,64.50
2017-10-04T08:33:07.307Z,64.60
2017-10-04T08:35:36.145Z,65.00
2017-10-04T08:38:05.309Z,64.80
2017-10-04T08:40:34.950Z,63.70
2017-10-04T08:43:03.801Z,63.70
2017-10-04T08:45:33.423Z,63.10
2017-10-04T08:51:03.811Z,61.50
2017-10-04T08:53:32.645Z,62.70
2017-10-04T08:56:02.035Z,62.90
2017-10-04T08:58:30.893Z,62.90
2017-10-04T09:00:59.448Z,62.80
2017-10-04T09:03:28.312Z,62.70
2017-10-04T09:06:03.802Z,63.70
2017-10-04T09:08:33.614Z,63.00
2017-10-04T09:11:02.450Z,62.70
2017-10-04T09:13:33.318Z,62.30
2017-10-04T09:16:02.950Z,61.70
2017-10-04T09:18:31.824Z,61.70
2017-10-04T09:21:01.474Z,61.70
2017-10-04T09:23:30.309Z,61.10
2017-10-04T09:25:59.918Z,61.10
2017-10-04T09:28:29.553Z,61.20
2017-10-04T09:30:58.401Z,61.10
2017-10-04T09:33:27.229Z,60.90
2017-10-04T09:35:56.069Z,60.50
2017-10-04T09:38:24.933Z,60.30
2017-10-04T09:40:53.779Z,60.40
2017-10-04T09:43:23.538Z,60.40
2017-10-04T09:45:52.046Z,60.60
2017-10-04T09:48:20.898Z,60.40
2017-10-04T09:50:49.760Z,60.40
2017-10-04T09:53:19.379Z,60.20
2017-10-04T09:55:48.230Z,60.20
2017-10-04T09:58:17.056Z,60.30
2017-10-04T10:00:46.705Z,59.50
2017-10-04T10:03:16.352Z,59.50
2017-10-04T10:05:45.189Z,59.00
2017-10-04T10:08:14.017Z,59.60
2017-10-04T10:10:44.487Z,58.80
2017-10-04T10:13:12.257Z,58.40
2017-10-04T10:15:41.090Z,57.60
2017-10-04T10:18:09.927Z,57.30
2017-10-04T10:20:39.517Z,57.30
2017-10-04T10:23:08.371Z,57.30
2017-10-04T10:25:37.213Z,57.60
2017-10-04T10:28:06.823Z,56.60
2017-10-04T10:30:36.434Z,56.40
2017-10-04T10:33:06.037Z,56.40
2017-10-04T10:35:35.658Z,56.30
2017-10-04T10:38:04.510Z,56.20
2017-10-04T10:40:33.367Z,56.30
2017-10-04T10:43:02.206Z,56.20
2017-10-04T10:45:31.046Z,56.20
2017-10-04T10:47:59.893Z,56.20
2017-10-04T10:50:28.732Z,56.40
2017-10-04T10:52:57.559Z,56.40
2017-10-04T10:55:26.431Z,56.40
2017-10-04T10:57:55.257Z,56.30
2017-10-04T11:00:24.924Z,56.40
2017-10-04T11:02:54.133Z,56.30
2017-10-04T11:05:23.802Z,56.30
2017-10-04T11:07:52.650Z,56.30
2017-10-04T11:10:21.499Z,56.20
2017-10-04T11:12:50.329Z,56.30
2017-10-04T11:15:19.176Z,56.40
2017-10-04T11:17:48.013Z,56.80
2017-10-04T11:20:16.861Z,56.50
2017-10-04T11:22:45.699Z,56.60
2017-10-04T11:25:14.566Z,56.70
2017-10-04T11:27:43.409Z,56.40
2017-10-04T11:30:12.242Z,56.20
2017-10-04T11:32:41.076Z,56.30
2017-10-04T11:35:11.339Z,55.50
2017-10-04T11:37:40.188Z,55.40
2017-10-04T11:40:09.800Z,55.20
2017-10-04T11:42:39.397Z,54.80
2017-10-04T11:45:08.297Z,54.70
2017-10-04T11:47:38.837Z,53.70
2017-10-04T11:50:08.481Z,53.80
2017-10-04T11:52:37.333Z,53.80
2017-10-04T11:55:07.614Z,53.50
2017-10-04T11:57:36.459Z,53.50
2017-10-04T12:00:06.077Z,53.20
2017-10-04T12:02:34.923Z,53.20
2017-10-04T12:05:03.753Z,53.40
2017-10-04T12:07:32.587Z,53.30
2017-10-04T12:10:01.430Z,53.30
2017-10-04T12:12:32.018Z,53.60
2017-10-04T12:15:00.863Z,53.60
2017-10-04T12:17:29.714Z,53.70
2017-10-04T12:19:58.561Z,53.40
2017-10-04T12:22:27.400Z,53.60
2017-10-04T12:24:56.242Z,53.40
2017-10-04T12:27:25.098Z,53.40
2017-10-04T12:29:54.711Z,53.30
2017-10-04T12:32:23.560Z,53.20
2017-10-04T12:34:52.410Z,52.90
2017-10-04T12:37:21.253Z,52.70
2017-10-04T12:39:50.172Z,52.50
2017-10-04T12:42:19.040Z,52.00
2017-10-04T12:44:48.361Z,52.50
2017-10-04T12:47:18.805Z,52.00
2017-10-04T12:49:47.641Z,51.90
2017-10-04T12:52:16.322Z,51.90
2017-10-04T12:54:45.160Z,52.20
2017-10-04T12:57:14.758Z,52.60
2017-10-04T12:59:44.365Z,52.60
2017-10-04T13:02:13.195Z,52.50
2017-10-04T13:04:42.044Z,52.60
2017-10-04T13:07:11.654Z,52.50
2017-10-04T13:09:40.523Z,52.50
2017-10-04T13:12:09.358Z,52.60
2017-10-04T13:14:38.189Z,52.60
2017-10-04T13:17:07.041Z,52.30
2017-10-04T13:19:35.886Z,52.40
2017-10-04T13:22:05.358Z,52.70
2017-10-04T13:24:34.202Z,52.60
2017-10-04T13:27:03.038Z,53.20
2017-10-04T13:29:31.878Z,52.40
2017-10-04T13:32:00.735Z,52.40
2017-10-04T13:34:30.167Z,52.40
2017-10-04T13:36:59.099Z,52.60
2017-10-04T13:39:27.929Z,52.10
2017-10-04T13:41:56.786Z,52.50
2017-10-04T13:44:25.627Z,52.60
2017-10-04T13:46:54.465Z,52.60
2017-10-04T13:49:23.055Z,52.60
2017-10-04T13:51:51.913Z,52.90
2017-10-04T13:54:21.522Z,53.40
2017-10-04T13:56:51.148Z,53.50
2017-10-04T13:59:19.991Z,53.50
2017-10-04T14:01:48.832Z,53.50
2017-10-04T14:04:17.677Z,53.60
2017-10-04T14:06:47.176Z,53.60
2017-10-04T14:09:16.893Z,53.60
2017-10-04T14:11:46.671Z,53.60
2017-10-04T14:14:15.518Z,53.70
2017-10-04T14:16:45.129Z,54.20
2017-10-04T14:19:14.750Z,54.10
2017-10-04T14:21:44.690Z,54.10
2017-10-04T14:24:13.526Z,54.00
2017-10-04T14:26:42.390Z,54.20
2017-10-04T14:29:11.237Z,54.40
2017-10-04T14:31:41.454Z,54.70
2017-10-04T14:34:11.250Z,54.90
2017-10-04T14:36:40.485Z,54.90
2017-10-04T14:39:09.369Z,55.20
2017-10-04T14:41:38.233Z,55.20
2017-10-04T14:44:07.078Z,55.40
2017-10-04T14:46:35.931Z,55.40
2017-10-04T14:49:04.806Z,55.70
2017-10-04T14:51:33.634Z,55.70
2017-10-04T14:54:02.487Z,55.80
2017-10-04T14:56:31.364Z,55.80
2017-10-04T14:59:00.826Z,56.00
2017-10-04T15:01:29.682Z,55.90
2017-10-04T15:03:59.339Z,56.10
2017-10-04T15:06:28.176Z,56.10
2017-10-04T15:08:57.059Z,56.20
2017-10-04T15:11:26.696Z,56.50
2017-10-04T15:13:56.298Z,56.60
2017-10-04T15:16:25.914Z,56.60
2017-10-04T15:18:55.526Z,56.80
2017-10-04T15:21:24.379Z,56.80
2017-10-04T15:23:53.248Z,56.80
2017-10-04T15:26:22.077Z,57.00
2017-10-04T15:28:50.918Z,57.00
2017-10-04T15:31:19.782Z,57.10
2017-10-04T15:33:48.623Z,57.20
2017-10-04T15:36:17.461Z,57.30
2017-10-04T15:38:46.882Z,57.50
2017-10-04T15:41:15.756Z,57.50
2017-10-04T15:43:44.641Z,57.60
2017-10-04T15:46:14.246Z,57.70
2017-10-04T15:48:43.841Z,57.80
2017-10-04T15:51:13.613Z,57.80
2017-10-04T15:53:42.453Z,58.00
2017-10-04T15:56:12.058Z,58.10
2017-10-04T15:58:41.666Z,58.20
2017-10-04T16:01:10.494Z,58.10
2017-10-04T16:03:39.329Z,58.10
2017-10-04T16:06:08.169Z,58.10
2017-10-04T16:08:37.025Z,58.20
2017-10-04T16:11:05.862Z,58.10
2017-10-04T16:13:34.686Z,58.20
2017-10-04T16:16:03.528Z,58.40
2017-10-04T16:18:32.404Z,58.50
2017-10-04T16:21:02.718Z,58.30
2017-10-04T16:23:32.342Z,58.30
2017-10-04T16:26:02.766Z,58.40
2017-10-04T16:28:32.393Z,58.40
2017-10-04T16:31:01.222Z,58.30
2017-10-04T16:33:30.065Z,58.50
2017-10-04T16:35:58.906Z,58.60
2017-10-04T16:38:30.456Z,58.70
2017-10-04T16:40:59.305Z,58.80
2017-10-04T16:43:28.958Z,58.80
2017-10-04T16:45:57.808Z,59.00
2017-10-04T16:48:26.653Z,59.10
2017-10-04T16:50:55.501Z,59.20
2017-10-04T16:53:24.367Z,59.40
2017-10-04T16:55:54.534Z,59.60
2017-10-04T16:58:23.389Z,59.50
2017-10-04T17:00:52.236Z,59.70
2017-10-04T17:03:22.178Z,59.80
2017-10-04T17:05:51.781Z,59.90
2017-10-04T17:08:21.399Z,60.60
2017-10-04T17:10:50.257Z,59.90
2017-10-04T17:13:19.111Z,60.10
2017-10-04T17:15:48.039Z,60.10
2017-10-04T17:18:17.091Z,60.20
2017-10-04T17:20:46.126Z,60.20
2017-10-04T17:23:15.966Z,60.30
2017-10-04T17:25:46.759Z,60.60
2017-10-04T17:28:17.431Z,60.40
2017-10-04T17:30:47.335Z,60.60
2017-10-04T17:33:16.430Z,60.40
2017-10-04T17:35:45.411Z,60.50
2017-10-04T17:38:14.383Z,60.50
2017-10-04T17:40:43.471Z,60.70
2017-10-04T17:43:12.596Z,60.50
2017-10-04T17:45:42.346Z,60.40
2017-10-04T17:48:12.197Z,60.40
2017-10-04T17:50:41.070Z,60.40
2017-10-04T17:53:09.929Z,60.50
2017-10-04T17:55:39.690Z,60.60
2017-10-04T17:58:08.736Z,60.60
2017-10-04T18:00:37.590Z,60.50
2017-10-04T18:03:06.447Z,60.50
2017-10-04T18:05:35.321Z,60.60
2017-10-04T18:08:05.265Z,60.60
2017-10-04T18:10:35.610Z,60.60
2017-10-04T18:13:04.981Z,60.60
2017-10-04T18:15:34.588Z,60.80
2017-10-04T18:18:03.903Z,60.90
2017-10-04T18:20:32.751Z,60.90
2017-10-04T18:23:02.378Z,61.60
2017-10-04T18:25:31.466Z,61.00
2017-10-04T18:28:00.311Z,61.30
2017-10-04T18:30:29.149Z,61.40
2017-10-04T18:32:57.969Z,61.90
2017-10-04T18:35:26.827Z,60.90
2017-10-04T18:37:56.455Z,61.40
2017-10-04T18:40:25.107Z,61.30
2017-10-04T18:42:54.245Z,61.30
2017-10-04T18:45:23.111Z,61.50
2017-10-04T18:47:51.941Z,61.50
2017-10-04T18:50:20.784Z,61.50
2017-10-04T18:52:50.600Z,61.60
2017-10-04T18:55:20.100Z,61.60
2017-10-04T18:57:48.702Z,61.60
2017-10-04T19:00:18.121Z,61.80
2017-10-04T19:02:47.410Z,61.90
2017-10-04T19:05:17.019Z,61.90
2017-10-04T19:07:47.731Z,61.70
2017-10-04T19:10:17.220Z,61.60
2017-10-04T19:12:46.062Z,61.60
2017-10-04T19:15:14.857Z,61.80
2017-10-04T19:17:43.694Z,61.80
2017-10-04T19:20:12.534Z,61.90
2017-10-04T19:22:42.321Z,61.90
2017-10-04T19:25:11.160Z,61.90
2017-10-04T19:27:40.128Z,62.00
2017-10-04T19:30:09.020Z,62.00
2017-10-04T19:32:37.885Z,61.90
2017-10-04T19:35:06.793Z,61.80
2017-10-04T19:37:36.402Z,61.60
2017-10-04T19:40:06.979Z,61.60
2017-10-04T19:42:35.822Z,61.50
2017-10-04T19:45:05.441Z,61.40
2017-10-04T19:47:34.292Z,61.40
2017-10-04T19:50:03.119Z,61.20
2017-10-04T19:52:31.970Z,61.20
2017-10-04T19:55:00.502Z,61.20
2017-10-04T19:57:29.384Z,61.10
2017-10-04T19:59:59.043Z,61.00
2017-10-04T20:02:27.909Z,60.90
2017-10-04T20:04:57.192Z,60.90
2017-10-04T20:07:26.789Z,61.10
2017-10-04T20:09:56.306Z,61.20
2017-10-04T20:12:25.143Z,61.10
2017-10-04T20:14:57.987Z,61.10
2017-10-04T20:17:26.822Z,61.00
2017-10-04T20:19:55.472Z,60.90
2017-10-04T20:22:25.117Z,61.10
2017-10-04T20:24:54.892Z,61.10
2017-10-04T20:27:24.572Z,61.10
2017-10-04T20:29:54.173Z,61.10
2017-10-04T20:32:23.009Z,61.00
2017-10-04T20:34:51.860Z,61.10
2017-10-04T20:37:21.462Z,61.00
2017-10-04T20:39:50.300Z,61.00
2017-10-04T20:42:19.152Z,61.80
2017-10-04T20:44:50.519Z,61.20
2017-10-04T20:47:20.120Z,61.20
2017-10-04T20:49:49.727Z,61.30
2017-10-04T20:52:19.332Z,61.30
2017-10-04T20:54:48.181Z,61.30
2017-10-04T20:57:18.360Z,61.50
2017-10-04T20:59:48.993Z,61.40
2017-10-04T21:02:18.704Z,61.50
2017-10-04T21:04:48.039Z,61.60
2017-10-04T21:07:17.475Z,61.70
2017-10-04T21:09:47.071Z,61.60
2017-10-04T21:12:15.917Z,61.70
2017-10-04T21:14:44.742Z,61.90
2017-10-04T21:17:13.590Z,61.90
2017-10-04T21:19:42.254Z,62.10
2017-10-04T21:22:11.867Z,62.20
2017-10-04T21:24:42.986Z,62.30
2017-10-04T21:27:12.492Z,62.30
2017-10-04T21:29:42.822Z,62.40
2017-10-04T21:32:11.686Z,62.50
2017-10-04T21:34:40.555Z,62.60
2017-10-04T21:37:09.412Z,62.60
2017-10-04T21:39:38.276Z,62.50
2017-10-04T21:42:07.107Z,62.70
2017-10-04T21:44:36.695Z,62.90
2017-10-04T21:47:06.303Z,62.90
2017-10-04T21:49:35.930Z,62.90
2017-10-04T21:52:04.795Z,62.90
2017-10-04T21:54:33.626Z,63.00
2017-10-04T21:57:02.487Z,63.00
2017-10-04T21:59:32.115Z,63.30
2017-10-04T22:02:00.962Z,63.20
2017-10-04T22:04:29.849Z,63.30
2017-10-04T22:06:58.696Z,63.30
2017-10-04T22:09:27.569Z,63.30
2017-10-04T22:11:57.183Z,63.50
2017-10-04T22:14:26.802Z,63.50
2017-10-04T22:16:57.290Z,63.50
2017-10-04T22:19:26.121Z,63.50
2017-10-04T22:21:55.706Z,63.50
2017-10-04T22:24:26.334Z,63.70
2017-10-04T22:26:55.166Z,63.80
2017-10-04T22:29:23.994Z,63.80
2017-10-04T22:31:52.834Z,63.90
2017-10-04T22:34:21.682Z,63.90
2017-10-04T22:36:50.509Z,63.90
2017-10-04T22:39:20.101Z,63.90
2017-10-04T22:41:50.322Z,64.50
2017-10-04T22:44:20.425Z,64.00
2017-10-04T22:46:49.297Z,63.90
2017-10-04T22:49:18.136Z,63.90
2017-10-04T22:51:46.967Z,63.90
2017-10-04T22:54:15.801Z,63.90
2017-10-04T22:56:45.414Z,64.00
2017-10-04T22:59:14.237Z,64.00
2017-10-04T23:01:43.070Z,63.90
2017-10-04T23:04:11.910Z,63.80
2017-10-04T23:06:41.574Z,63.80
2017-10-04T23:09:10.409Z,63.80
2017-10-04T23:11:39.254Z,63.70
2017-10-04T23:14:08.094Z,63.50
2017-10-04T23:16:36.941Z,63.50
2017-10-04T23:19:05.604Z,63.40
2017-10-04T23:21:34.455Z,63.40
2017-10-04T23:24:04.426Z,63.40
2017-10-04T23:26:33.261Z,63.40
2017-10-04T23:29:02.093Z,63.00
2017-10-04T23:31:31.864Z,62.90
2017-10-04T23:34:00.697Z,62.90
2017-10-04T23:36:29.553Z,62.80
2017-10-04T23:38:58.394Z,62.70
2017-10-04T23:41:27.233Z,62.70
2017-10-04T23:43:56.065Z,62.60
2017-10-04T23:46:25.302Z,62.40
2017-10-04T23:48:54.901Z,62.40
2017-10-04T23:51:24.510Z,62.50
2017-10-04T23:53:53.351Z,62.50
2017-10-04T23:56:22.190Z,62.60
2017-10-04T23:58:51.800Z,62.30
